sensor_id;sensor_type;location;lat;lon;timestamp;P1;durP1;ratioP1;P2;durP2;ratioP2
33553;SDS011;19885;42.208;24.952;2023-04-25T00:02:09;2.40;;;1.60;;
33553;SDS011;19885;42.208;24.952;2023-04-25T00:04:34;1.57;;;1.43;;
33553;SDS011;19885;42.208;24.952;2023-04-25T00:06:59;1.60;;;1.50;;
33553;SDS011;19885;42.208;24.952;2023-04-25T00:09:28;2.23;;;1.50;;
33553;SDS011;19885;42.208;24.952;2023-04-25T00:11:53;2.43;;;1.57;;
33553;SDS011;19885;42.208;24.952;2023-04-25T00:14:18;6.30;;;2.00;;
33553;SDS011;19885;42.208;24.952;2023-04-25T00:16:44;1.90;;;1.40;;
33553;SDS011;19885;42.208;24.952;2023-04-25T00:19:09;2.80;;;2.10;;
33553;SDS011;19885;42.208;24.952;2023-04-25T00:21:35;2.43;;;2.20;;
33553;SDS011;19885;42.208;24.952;2023-04-25T00:24:02;1.83;;;1.73;;
33553;SDS011;19885;42.208;24.952;2023-04-25T00:26:28;2.37;;;1.80;;
33553;SDS011;19885;42.208;24.952;2023-04-25T00:28:54;1.93;;;1.83;;
33553;SDS011;19885;42.208;24.952;2023-04-25T00:31:19;2.53;;;1.70;;
33553;SDS011;19885;42.208;24.952;2023-04-25T00:33:45;2.00;;;1.80;;
33553;SDS011;19885;42.208;24.952;2023-04-25T00:36:10;3.50;;;2.20;;
33553;SDS011;19885;42.208;24.952;2023-04-25T00:38:36;2.93;;;1.70;;
33553;SDS011;19885;42.208;24.952;2023-04-25T00:41:04;2.57;;;1.87;;
33553;SDS011;19885;42.208;24.952;2023-04-25T00:43:31;4.80;;;2.23;;
33553;SDS011;19885;42.208;24.952;2023-04-25T00:45:57;3.90;;;2.03;;
33553;SDS011;19885;42.208;24.952;2023-04-25T00:48:25;3.77;;;2.40;;
33553;SDS011;19885;42.208;24.952;2023-04-25T00:50:54;3.60;;;2.33;;
33553;SDS011;19885;42.208;24.952;2023-04-25T00:53:22;3.03;;;2.00;;
33553;SDS011;19885;42.208;24.952;2023-04-25T00:55:49;4.37;;;2.17;;
33553;SDS011;19885;42.208;24.952;2023-04-25T00:58:18;3.03;;;1.83;;
33553;SDS011;19885;42.208;24.952;2023-04-25T01:00:45;4.50;;;2.03;;
33553;SDS011;19885;42.208;24.952;2023-04-25T01:03:12;2.07;;;1.87;;
33553;SDS011;19885;42.208;24.952;2023-04-25T01:05:40;2.97;;;2.27;;
33553;SDS011;19885;42.208;24.952;2023-04-25T01:08:06;3.00;;;2.30;;
33553;SDS011;19885;42.208;24.952;2023-04-25T01:10:32;5.20;;;2.60;;
33553;SDS011;19885;42.208;24.952;2023-04-25T01:12:57;3.00;;;2.47;;
33553;SDS011;19885;42.208;24.952;2023-04-25T01:15:23;3.53;;;2.60;;
33553;SDS011;19885;42.208;24.952;2023-04-25T01:17:49;3.87;;;2.43;;
33553;SDS011;19885;42.208;24.952;2023-04-25T01:20:14;4.43;;;2.87;;
33553;SDS011;19885;42.208;24.952;2023-04-25T01:22:41;7.73;;;3.93;;
33553;SDS011;19885;42.208;24.952;2023-04-25T01:25:07;13.83;;;7.03;;
33553;SDS011;19885;42.208;24.952;2023-04-25T01:27:35;23.57;;;8.73;;
33553;SDS011;19885;42.208;24.952;2023-04-25T01:30:01;10.70;;;5.57;;
33553;SDS011;19885;42.208;24.952;2023-04-25T01:32:28;4.40;;;3.43;;
33553;SDS011;19885;42.208;24.952;2023-04-25T01:35:03;12.90;;;7.40;;
33553;SDS011;19885;42.208;24.952;2023-04-25T01:37:37;6.43;;;4.70;;
33553;SDS011;19885;42.208;24.952;2023-04-25T01:40:06;7.67;;;3.20;;
33553;SDS011;19885;42.208;24.952;2023-04-25T01:42:34;4.77;;;4.37;;
33553;SDS011;19885;42.208;24.952;2023-04-25T01:45:01;3.50;;;3.23;;
33553;SDS011;19885;42.208;24.952;2023-04-25T01:47:28;4.67;;;2.93;;
33553;SDS011;19885;42.208;24.952;2023-04-25T01:49:54;4.97;;;3.30;;
33553;SDS011;19885;42.208;24.952;2023-04-25T01:52:20;3.27;;;2.97;;
33553;SDS011;19885;42.208;24.952;2023-04-25T01:54:46;2.93;;;2.43;;
33553;SDS011;19885;42.208;24.952;2023-04-25T01:57:13;2.80;;;2.60;;
33553;SDS011;19885;42.208;24.952;2023-04-25T01:59:39;5.67;;;2.63;;
33553;SDS011;19885;42.208;24.952;2023-04-25T02:02:06;3.13;;;2.83;;
33553;SDS011;19885;42.208;24.952;2023-04-25T02:04:32;3.40;;;3.10;;
33553;SDS011;19885;42.208;24.952;2023-04-25T02:06:58;4.87;;;2.60;;
33553;SDS011;19885;42.208;24.952;2023-04-25T02:09:24;4.63;;;2.80;;
33553;SDS011;19885;42.208;24.952;2023-04-25T02:11:49;3.63;;;2.70;;
33553;SDS011;19885;42.208;24.952;2023-04-25T02:14:15;3.37;;;2.80;;
33553;SDS011;19885;42.208;24.952;2023-04-25T02:16:40;2.90;;;2.57;;
33553;SDS011;19885;42.208;24.952;2023-04-25T02:19:08;3.47;;;2.73;;
33553;SDS011;19885;42.208;24.952;2023-04-25T02:21:34;2.50;;;2.30;;
33553;SDS011;19885;42.208;24.952;2023-04-25T02:24:00;4.50;;;3.00;;
33553;SDS011;19885;42.208;24.952;2023-04-25T02:26:26;10.97;;;6.63;;
33553;SDS011;19885;42.208;24.952;2023-04-25T02:28:51;11.87;;;7.57;;
33553;SDS011;19885;42.208;24.952;2023-04-25T02:31:17;14.60;;;7.60;;
33553;SDS011;19885;42.208;24.952;2023-04-25T02:33:42;5.80;;;3.87;;
33553;SDS011;19885;42.208;24.952;2023-04-25T02:36:08;3.20;;;2.77;;
33553;SDS011;19885;42.208;24.952;2023-04-25T02:38:34;3.47;;;3.17;;
33553;SDS011;19885;42.208;24.952;2023-04-25T02:40:59;4.27;;;3.67;;
33553;SDS011;19885;42.208;24.952;2023-04-25T02:43:25;4.27;;;3.20;;
33553;SDS011;19885;42.208;24.952;2023-04-25T02:45:50;3.77;;;3.30;;
33553;SDS011;19885;42.208;24.952;2023-04-25T02:48:16;3.10;;;2.63;;
33553;SDS011;19885;42.208;24.952;2023-04-25T02:50:41;3.10;;;2.80;;
33553;SDS011;19885;42.208;24.952;2023-04-25T02:53:07;2.83;;;2.30;;
33553;SDS011;19885;42.208;24.952;2023-04-25T02:55:32;4.20;;;2.80;;
33553;SDS011;19885;42.208;24.952;2023-04-25T02:57:58;4.37;;;2.47;;
33553;SDS011;19885;42.208;24.952;2023-04-25T03:00:23;3.60;;;3.30;;
33553;SDS011;19885;42.208;24.952;2023-04-25T03:02:49;4.17;;;2.83;;
33553;SDS011;19885;42.208;24.952;2023-04-25T03:05:14;4.53;;;3.53;;
33553;SDS011;19885;42.208;24.952;2023-04-25T03:07:40;4.00;;;3.67;;
33553;SDS011;19885;42.208;24.952;2023-04-25T03:10:06;2.97;;;2.67;;
33553;SDS011;19885;42.208;24.952;2023-04-25T03:12:32;2.47;;;2.27;;
33553;SDS011;19885;42.208;24.952;2023-04-25T03:14:58;3.33;;;2.30;;
33553;SDS011;19885;42.208;24.952;2023-04-25T03:17:23;5.00;;;2.53;;
33553;SDS011;19885;42.208;24.952;2023-04-25T03:19:48;3.00;;;2.30;;
33553;SDS011;19885;42.208;24.952;2023-04-25T03:22:14;5.53;;;3.20;;
33553;SDS011;19885;42.208;24.952;2023-04-25T03:24:40;4.90;;;2.60;;
33553;SDS011;19885;42.208;24.952;2023-04-25T03:27:05;3.47;;;2.60;;
33553;SDS011;19885;42.208;24.952;2023-04-25T03:29:31;2.90;;;2.60;;
33553;SDS011;19885;42.208;24.952;2023-04-25T03:32:00;4.73;;;3.03;;
33553;SDS011;19885;42.208;24.952;2023-04-25T03:34:25;13.87;;;3.97;;
33553;SDS011;19885;42.208;24.952;2023-04-25T03:36:51;4.67;;;2.67;;
33553;SDS011;19885;42.208;24.952;2023-04-25T03:39:16;3.10;;;2.80;;
33553;SDS011;19885;42.208;24.952;2023-04-25T03:41:42;4.67;;;3.03;;
33553;SDS011;19885;42.208;24.952;2023-04-25T03:44:07;3.60;;;3.00;;
33553;SDS011;19885;42.208;24.952;2023-04-25T03:46:33;5.27;;;3.83;;
33553;SDS011;19885;42.208;24.952;2023-04-25T03:48:58;4.23;;;3.63;;
33553;SDS011;19885;42.208;24.952;2023-04-25T03:51:24;3.73;;;3.37;;
33553;SDS011;19885;42.208;24.952;2023-04-25T03:53:51;3.07;;;2.77;;
33553;SDS011;19885;42.208;24.952;2023-04-25T03:56:17;4.97;;;3.30;;
33553;SDS011;19885;42.208;24.952;2023-04-25T03:58:42;4.70;;;3.80;;
33553;SDS011;19885;42.208;24.952;2023-04-25T04:01:08;3.27;;;2.97;;
33553;SDS011;19885;42.208;24.952;2023-04-25T04:03:34;4.77;;;3.80;;
33553;SDS011;19885;42.208;24.952;2023-04-25T04:06:03;4.57;;;3.53;;
33553;SDS011;19885;42.208;24.952;2023-04-25T04:08:30;5.40;;;4.07;;
33553;SDS011;19885;42.208;24.952;2023-04-25T04:10:56;4.47;;;3.73;;
33553;SDS011;19885;42.208;24.952;2023-04-25T04:13:23;5.57;;;4.20;;
33553;SDS011;19885;42.208;24.952;2023-04-25T04:15:48;7.93;;;4.23;;
33553;SDS011;19885;42.208;24.952;2023-04-25T04:18:14;6.30;;;4.30;;
33553;SDS011;19885;42.208;24.952;2023-04-25T04:20:40;5.07;;;4.23;;
33553;SDS011;19885;42.208;24.952;2023-04-25T04:23:05;7.37;;;4.23;;
33553;SDS011;19885;42.208;24.952;2023-04-25T04:25:31;7.50;;;3.57;;
33553;SDS011;19885;42.208;24.952;2023-04-25T04:27:56;4.80;;;3.97;;
33553;SDS011;19885;42.208;24.952;2023-04-25T04:30:22;4.40;;;3.87;;
33553;SDS011;19885;42.208;24.952;2023-04-25T04:32:54;5.03;;;4.10;;
33553;SDS011;19885;42.208;24.952;2023-04-25T04:35:21;5.60;;;3.83;;
33553;SDS011;19885;42.208;24.952;2023-04-25T04:37:47;6.10;;;4.07;;
33553;SDS011;19885;42.208;24.952;2023-04-25T04:40:13;6.17;;;4.03;;
33553;SDS011;19885;42.208;24.952;2023-04-25T04:42:41;5.73;;;4.50;;
33553;SDS011;19885;42.208;24.952;2023-04-25T04:45:07;4.97;;;3.70;;
33553;SDS011;19885;42.208;24.952;2023-04-25T04:47:33;6.83;;;4.53;;
33553;SDS011;19885;42.208;24.952;2023-04-25T04:50:01;6.47;;;4.70;;
33553;SDS011;19885;42.208;24.952;2023-04-25T04:52:27;7.90;;;4.30;;
33553;SDS011;19885;42.208;24.952;2023-04-25T04:54:53;6.40;;;4.37;;
33553;SDS011;19885;42.208;24.952;2023-04-25T04:57:18;5.33;;;3.50;;
33553;SDS011;19885;42.208;24.952;2023-04-25T04:59:44;3.83;;;3.33;;
33553;SDS011;19885;42.208;24.952;2023-04-25T05:02:10;8.27;;;3.67;;
33553;SDS011;19885;42.208;24.952;2023-04-25T05:04:35;4.30;;;3.53;;
33553;SDS011;19885;42.208;24.952;2023-04-25T05:07:00;4.23;;;3.77;;
33553;SDS011;19885;42.208;24.952;2023-04-25T05:09:26;3.87;;;3.33;;
33553;SDS011;19885;42.208;24.952;2023-04-25T05:11:52;3.80;;;3.10;;
33553;SDS011;19885;42.208;24.952;2023-04-25T05:14:17;3.43;;;2.63;;
33553;SDS011;19885;42.208;24.952;2023-04-25T05:16:43;5.03;;;2.83;;
33553;SDS011;19885;42.208;24.952;2023-04-25T05:19:09;3.27;;;2.80;;
33553;SDS011;19885;42.208;24.952;2023-04-25T05:21:34;2.73;;;2.50;;
33553;SDS011;19885;42.208;24.952;2023-04-25T05:24:00;3.57;;;2.83;;
33553;SDS011;19885;42.208;24.952;2023-04-25T05:26:26;2.93;;;2.53;;
33553;SDS011;19885;42.208;24.952;2023-04-25T05:28:55;4.00;;;3.20;;
33553;SDS011;19885;42.208;24.952;2023-04-25T05:31:21;3.03;;;2.40;;
33553;SDS011;19885;42.208;24.952;2023-04-25T05:33:47;3.40;;;2.17;;
33553;SDS011;19885;42.208;24.952;2023-04-25T05:36:12;3.10;;;2.77;;
33553;SDS011;19885;42.208;24.952;2023-04-25T05:38:38;2.80;;;2.60;;
33553;SDS011;19885;42.208;24.952;2023-04-25T05:41:03;4.97;;;2.87;;
33553;SDS011;19885;42.208;24.952;2023-04-25T05:43:29;3.20;;;2.50;;
33553;SDS011;19885;42.208;24.952;2023-04-25T05:45:54;5.13;;;2.23;;
33553;SDS011;19885;42.208;24.952;2023-04-25T05:48:20;6.77;;;2.53;;
33553;SDS011;19885;42.208;24.952;2023-04-25T05:50:45;6.83;;;4.00;;
33553;SDS011;19885;42.208;24.952;2023-04-25T05:53:10;9.63;;;2.73;;
33553;SDS011;19885;42.208;24.952;2023-04-25T05:55:36;2.43;;;2.00;;
33553;SDS011;19885;42.208;24.952;2023-04-25T05:58:01;1.93;;;1.80;;
33553;SDS011;19885;42.208;24.952;2023-04-25T06:00:27;1.87;;;1.77;;
33553;SDS011;19885;42.208;24.952;2023-04-25T06:02:52;3.40;;;2.20;;
33553;SDS011;19885;42.208;24.952;2023-04-25T06:05:18;2.30;;;1.90;;
33553;SDS011;19885;42.208;24.952;2023-04-25T06:07:43;5.63;;;1.80;;
33553;SDS011;19885;42.208;24.952;2023-04-25T06:10:09;2.03;;;1.83;;
33553;SDS011;19885;42.208;24.952;2023-04-25T06:12:35;2.47;;;1.73;;
33553;SDS011;19885;42.208;24.952;2023-04-25T06:15:00;1.73;;;1.60;;
33553;SDS011;19885;42.208;24.952;2023-04-25T06:17:26;2.13;;;1.93;;
33553;SDS011;19885;42.208;24.952;2023-04-25T06:19:51;2.30;;;1.77;;
33553;SDS011;19885;42.208;24.952;2023-04-25T06:22:17;1.77;;;1.60;;
33553;SDS011;19885;42.208;24.952;2023-04-25T06:24:42;1.47;;;1.37;;
33553;SDS011;19885;42.208;24.952;2023-04-25T06:27:07;2.00;;;1.77;;
33553;SDS011;19885;42.208;24.952;2023-04-25T06:29:33;3.07;;;1.80;;
33553;SDS011;19885;42.208;24.952;2023-04-25T06:31:58;1.83;;;1.70;;
33553;SDS011;19885;42.208;24.952;2023-04-25T06:34:23;2.10;;;1.70;;
33553;SDS011;19885;42.208;24.952;2023-04-25T06:36:49;4.30;;;1.97;;
33553;SDS011;19885;42.208;24.952;2023-04-25T06:39:14;4.00;;;2.30;;
33553;SDS011;19885;42.208;24.952;2023-04-25T06:41:40;2.33;;;1.77;;
33553;SDS011;19885;42.208;24.952;2023-04-25T06:44:05;2.23;;;1.83;;
33553;SDS011;19885;42.208;24.952;2023-04-25T06:46:31;1.73;;;1.63;;
33553;SDS011;19885;42.208;24.952;2023-04-25T06:48:56;2.30;;;1.70;;
33553;SDS011;19885;42.208;24.952;2023-04-25T06:51:22;3.07;;;2.03;;
33553;SDS011;19885;42.208;24.952;2023-04-25T06:53:49;2.33;;;1.70;;
33553;SDS011;19885;42.208;24.952;2023-04-25T06:56:14;2.60;;;2.40;;
33553;SDS011;19885;42.208;24.952;2023-04-25T06:58:41;2.93;;;2.20;;
33553;SDS011;19885;42.208;24.952;2023-04-25T07:01:06;2.50;;;2.30;;
33553;SDS011;19885;42.208;24.952;2023-04-25T07:03:31;2.43;;;2.23;;
33553;SDS011;19885;42.208;24.952;2023-04-25T07:05:57;1.77;;;1.67;;
33553;SDS011;19885;42.208;24.952;2023-04-25T07:08:22;2.43;;;1.83;;
33553;SDS011;19885;42.208;24.952;2023-04-25T07:10:48;2.37;;;2.17;;
33553;SDS011;19885;42.208;24.952;2023-04-25T07:13:13;3.87;;;2.40;;
33553;SDS011;19885;42.208;24.952;2023-04-25T07:15:39;7.63;;;2.10;;
33553;SDS011;19885;42.208;24.952;2023-04-25T07:18:04;7.07;;;2.20;;
33553;SDS011;19885;42.208;24.952;2023-04-25T07:20:30;2.07;;;1.87;;
33553;SDS011;19885;42.208;24.952;2023-04-25T07:22:56;2.47;;;2.13;;
33553;SDS011;19885;42.208;24.952;2023-04-25T07:25:22;2.33;;;1.73;;
33553;SDS011;19885;42.208;24.952;2023-04-25T07:27:47;5.47;;;2.20;;
33553;SDS011;19885;42.208;24.952;2023-04-25T07:30:13;3.67;;;1.83;;
33553;SDS011;19885;42.208;24.952;2023-04-25T07:32:38;2.43;;;2.07;;
33553;SDS011;19885;42.208;24.952;2023-04-25T07:35:04;3.00;;;2.03;;
33553;SDS011;19885;42.208;24.952;2023-04-25T07:37:32;2.07;;;1.90;;
33553;SDS011;19885;42.208;24.952;2023-04-25T07:39:58;3.37;;;1.83;;
33553;SDS011;19885;42.208;24.952;2023-04-25T07:42:23;1.97;;;1.83;;
33553;SDS011;19885;42.208;24.952;2023-04-25T07:44:48;1.77;;;1.67;;
33553;SDS011;19885;42.208;24.952;2023-04-25T07:47:15;2.17;;;1.97;;
33553;SDS011;19885;42.208;24.952;2023-04-25T07:49:40;2.17;;;1.70;;
33553;SDS011;19885;42.208;24.952;2023-04-25T07:52:06;2.70;;;2.23;;
33553;SDS011;19885;42.208;24.952;2023-04-25T07:54:31;4.23;;;1.80;;
33553;SDS011;19885;42.208;24.952;2023-04-25T07:56:57;1.83;;;1.73;;
33553;SDS011;19885;42.208;24.952;2023-04-25T07:59:23;3.93;;;2.43;;
33553;SDS011;19885;42.208;24.952;2023-04-25T08:01:49;3.57;;;2.00;;
33553;SDS011;19885;42.208;24.952;2023-04-25T08:04:15;5.40;;;2.13;;
33553;SDS011;19885;42.208;24.952;2023-04-25T08:06:41;5.30;;;2.23;;
33553;SDS011;19885;42.208;24.952;2023-04-25T08:09:08;3.27;;;2.97;;
33553;SDS011;19885;42.208;24.952;2023-04-25T08:11:34;2.90;;;2.60;;
33553;SDS011;19885;42.208;24.952;2023-04-25T08:14:00;3.00;;;2.40;;
33553;SDS011;19885;42.208;24.952;2023-04-25T08:16:25;3.20;;;2.83;;
33553;SDS011;19885;42.208;24.952;2023-04-25T08:18:51;2.83;;;2.63;;
33553;SDS011;19885;42.208;24.952;2023-04-25T08:21:16;2.33;;;2.13;;
33553;SDS011;19885;42.208;24.952;2023-04-25T08:23:42;2.50;;;2.00;;
33553;SDS011;19885;42.208;24.952;2023-04-25T08:26:07;2.67;;;2.47;;
33553;SDS011;19885;42.208;24.952;2023-04-25T08:28:32;8.57;;;2.20;;
33553;SDS011;19885;42.208;24.952;2023-04-25T08:30:58;2.53;;;1.93;;
33553;SDS011;19885;42.208;24.952;2023-04-25T08:33:23;2.13;;;1.90;;
33553;SDS011;19885;42.208;24.952;2023-04-25T08:35:50;3.47;;;2.83;;
33553;SDS011;19885;42.208;24.952;2023-04-25T08:38:15;2.80;;;2.53;;
33553;SDS011;19885;42.208;24.952;2023-04-25T08:40:41;3.93;;;3.00;;
33553;SDS011;19885;42.208;24.952;2023-04-25T08:43:08;4.97;;;3.00;;
33553;SDS011;19885;42.208;24.952;2023-04-25T08:45:41;8.27;;;3.00;;
33553;SDS011;19885;42.208;24.952;2023-04-25T08:48:08;2.87;;;2.57;;
33553;SDS011;19885;42.208;24.952;2023-04-25T08:50:40;3.70;;;2.80;;
33553;SDS011;19885;42.208;24.952;2023-04-25T08:53:12;3.40;;;3.10;;
33553;SDS011;19885;42.208;24.952;2023-04-25T08:55:43;4.27;;;2.90;;
33553;SDS011;19885;42.208;24.952;2023-04-25T08:58:10;2.10;;;1.90;;
33553;SDS011;19885;42.208;24.952;2023-04-25T09:00:36;5.37;;;1.97;;
33553;SDS011;19885;42.208;24.952;2023-04-25T09:03:02;3.93;;;1.73;;
33553;SDS011;19885;42.208;24.952;2023-04-25T09:05:28;2.23;;;1.70;;
33553;SDS011;19885;42.208;24.952;2023-04-25T09:07:54;1.73;;;1.60;;
33553;SDS011;19885;42.208;24.952;2023-04-25T09:10:21;3.40;;;2.33;;
33553;SDS011;19885;42.208;24.952;2023-04-25T09:13:01;3.20;;;1.50;;
33553;SDS011;19885;42.208;24.952;2023-04-25T09:15:28;2.30;;;2.10;;
33553;SDS011;19885;42.208;24.952;2023-04-25T09:17:55;1.73;;;1.60;;
33553;SDS011;19885;42.208;24.952;2023-04-25T09:20:21;3.37;;;2.50;;
33553;SDS011;19885;42.208;24.952;2023-04-25T09:22:46;6.63;;;2.03;;
33553;SDS011;19885;42.208;24.952;2023-04-25T09:25:12;5.70;;;2.10;;
33553;SDS011;19885;42.208;24.952;2023-04-25T09:27:52;3.97;;;2.30;;
33553;SDS011;19885;42.208;24.952;2023-04-25T09:30:28;2.43;;;2.23;;
33553;SDS011;19885;42.208;24.952;2023-04-25T09:32:56;3.63;;;2.30;;
33553;SDS011;19885;42.208;24.952;2023-04-25T09:35:24;2.30;;;2.10;;
33553;SDS011;19885;42.208;24.952;2023-04-25T09:37:51;2.93;;;2.20;;
33553;SDS011;19885;42.208;24.952;2023-04-25T09:40:17;2.57;;;2.17;;
33553;SDS011;19885;42.208;24.952;2023-04-25T09:42:43;2.67;;;2.20;;
33553;SDS011;19885;42.208;24.952;2023-04-25T09:45:09;3.83;;;2.47;;
33553;SDS011;19885;42.208;24.952;2023-04-25T09:47:38;4.40;;;2.33;;
33553;SDS011;19885;42.208;24.952;2023-04-25T09:50:04;4.83;;;3.00;;
33553;SDS011;19885;42.208;24.952;2023-04-25T09:52:40;2.43;;;2.23;;
33553;SDS011;19885;42.208;24.952;2023-04-25T09:55:06;4.10;;;2.40;;
33553;SDS011;19885;42.208;24.952;2023-04-25T09:57:31;3.20;;;2.43;;
33553;SDS011;19885;42.208;24.952;2023-04-25T09:59:57;3.50;;;2.37;;
33553;SDS011;19885;42.208;24.952;2023-04-25T10:02:25;2.83;;;2.17;;
33553;SDS011;19885;42.208;24.952;2023-04-25T10:04:52;1.97;;;1.77;;
33553;SDS011;19885;42.208;24.952;2023-04-25T10:07:24;4.33;;;1.90;;
33553;SDS011;19885;42.208;24.952;2023-04-25T10:09:54;2.23;;;2.00;;
33553;SDS011;19885;42.208;24.952;2023-04-25T10:12:28;3.57;;;1.70;;
33553;SDS011;19885;42.208;24.952;2023-04-25T10:14:54;1.90;;;1.47;;
33553;SDS011;19885;42.208;24.952;2023-04-25T10:17:20;3.60;;;2.03;;
33553;SDS011;19885;42.208;24.952;2023-04-25T10:19:46;2.83;;;1.60;;
33553;SDS011;19885;42.208;24.952;2023-04-25T10:22:14;4.30;;;2.22;;
33553;SDS011;19885;42.208;24.952;2023-04-25T10:24:45;2.20;;;2.00;;
33553;SDS011;19885;42.208;24.952;2023-04-25T10:27:11;5.32;;;2.58;;
33553;SDS011;19885;42.208;24.952;2023-04-25T10:29:37;9.52;;;2.72;;
33553;SDS011;19885;42.208;24.952;2023-04-25T10:32:03;12.98;;;2.20;;
33553;SDS011;19885;42.208;24.952;2023-04-25T10:34:41;4.03;;;1.83;;
33553;SDS011;19885;42.208;24.952;2023-04-25T10:37:09;2.20;;;1.60;;
33553;SDS011;19885;42.208;24.952;2023-04-25T10:39:36;2.15;;;1.95;;
33553;SDS011;19885;42.208;24.952;2023-04-25T10:42:04;2.83;;;2.03;;
33553;SDS011;19885;42.208;24.952;2023-04-25T10:44:29;2.90;;;1.42;;
33553;SDS011;19885;42.208;24.952;2023-04-25T10:46:56;3.83;;;1.83;;
33553;SDS011;19885;42.208;24.952;2023-04-25T10:52:10;2.90;;;1.50;;
33553;SDS011;19885;42.208;24.952;2023-04-25T10:54:51;1.35;;;1.25;;
33553;SDS011;19885;42.208;24.952;2023-04-25T11:00:07;2.10;;;1.85;;
33553;SDS011;19885;42.208;24.952;2023-04-25T11:02:47;5.35;;;2.00;;
33553;SDS011;19885;42.208;24.952;2023-04-25T11:05:20;5.38;;;1.30;;
33553;SDS011;19885;42.208;24.952;2023-04-25T11:07:53;1.88;;;1.25;;
33553;SDS011;19885;42.208;24.952;2023-04-25T11:10:24;2.60;;;1.40;;
33553;SDS011;19885;42.208;24.952;2023-04-25T11:12:53;2.67;;;1.30;;
33553;SDS011;19885;42.208;24.952;2023-04-25T11:15:19;2.00;;;1.15;;
33553;SDS011;19885;42.208;24.952;2023-04-25T11:17:44;2.45;;;1.58;;
33553;SDS011;19885;42.208;24.952;2023-04-25T11:20:11;3.85;;;2.55;;
33553;SDS011;19885;42.208;24.952;2023-04-25T11:22:39;4.95;;;3.13;;
33553;SDS011;19885;42.208;24.952;2023-04-25T11:25:08;7.47;;;3.70;;
33553;SDS011;19885;42.208;24.952;2023-04-25T11:27:39;8.00;;;3.95;;
33553;SDS011;19885;42.208;24.952;2023-04-25T11:30:15;4.68;;;3.65;;
33553;SDS011;19885;42.208;24.952;2023-04-25T11:32:41;5.65;;;3.13;;
33553;SDS011;19885;42.208;24.952;2023-04-25T11:35:08;5.93;;;4.00;;
33553;SDS011;19885;42.208;24.952;2023-04-25T11:37:34;7.32;;;4.32;;
33553;SDS011;19885;42.208;24.952;2023-04-25T11:40:00;8.10;;;4.00;;
33553;SDS011;19885;42.208;24.952;2023-04-25T11:42:26;7.47;;;4.57;;
33553;SDS011;19885;42.208;24.952;2023-04-25T11:44:51;4.57;;;3.50;;
33553;SDS011;19885;42.208;24.952;2023-04-25T11:47:17;4.82;;;3.50;;
33553;SDS011;19885;42.208;24.952;2023-04-25T11:49:42;5.63;;;4.35;;
33553;SDS011;19885;42.208;24.952;2023-04-25T11:52:08;5.03;;;3.55;;
33553;SDS011;19885;42.208;24.952;2023-04-25T11:54:36;6.25;;;3.58;;
33553;SDS011;19885;42.208;24.952;2023-04-25T11:57:03;5.78;;;4.10;;
33553;SDS011;19885;42.208;24.952;2023-04-25T11:59:29;9.02;;;3.97;;
33553;SDS011;19885;42.208;24.952;2023-04-25T12:01:55;4.68;;;3.42;;
33553;SDS011;19885;42.208;24.952;2023-04-25T12:06:48;6.28;;;3.88;;
33553;SDS011;19885;42.208;24.952;2023-04-25T12:09:17;6.00;;;3.03;;
33553;SDS011;19885;42.208;24.952;2023-04-25T12:11:56;3.97;;;2.92;;
33553;SDS011;19885;42.208;24.952;2023-04-25T12:14:30;3.33;;;3.03;;
33553;SDS011;19885;42.208;24.952;2023-04-25T12:16:58;3.42;;;2.45;;
33553;SDS011;19885;42.208;24.952;2023-04-25T12:19:24;5.18;;;3.30;;
33553;SDS011;19885;42.208;24.952;2023-04-25T12:21:50;2.90;;;2.30;;
33553;SDS011;19885;42.208;24.952;2023-04-25T12:24:23;4.10;;;2.85;;
33553;SDS011;19885;42.208;24.952;2023-04-25T12:27:06;3.53;;;2.83;;
33553;SDS011;19885;42.208;24.952;2023-04-25T12:29:33;4.35;;;2.55;;
33553;SDS011;19885;42.208;24.952;2023-04-25T12:31:59;4.47;;;2.65;;
33553;SDS011;19885;42.208;24.952;2023-04-25T12:34:26;4.03;;;2.25;;
33553;SDS011;19885;42.208;24.952;2023-04-25T12:36:52;4.00;;;2.25;;
33553;SDS011;19885;42.208;24.952;2023-04-25T12:39:22;5.07;;;2.50;;
33553;SDS011;19885;42.208;24.952;2023-04-25T12:41:48;2.40;;;2.00;;
33553;SDS011;19885;42.208;24.952;2023-04-25T12:44:15;1.98;;;1.80;;
33553;SDS011;19885;42.208;24.952;2023-04-25T12:46:41;3.58;;;2.03;;
33553;SDS011;19885;42.208;24.952;2023-04-25T12:49:07;3.22;;;2.60;;
33553;SDS011;19885;42.208;24.952;2023-04-25T12:51:33;4.60;;;2.65;;
33553;SDS011;19885;42.208;24.952;2023-04-25T12:54:00;2.92;;;2.10;;
33553;SDS011;19885;42.208;24.952;2023-04-25T12:56:26;5.13;;;2.67;;
33553;SDS011;19885;42.208;24.952;2023-04-25T12:58:52;2.45;;;2.10;;
33553;SDS011;19885;42.208;24.952;2023-04-25T13:01:19;3.40;;;2.10;;
33553;SDS011;19885;42.208;24.952;2023-04-25T13:03:45;2.97;;;2.00;;
33553;SDS011;19885;42.208;24.952;2023-04-25T13:06:11;5.03;;;2.17;;
33553;SDS011;19885;42.208;24.952;2023-04-25T13:08:37;2.53;;;2.33;;
33553;SDS011;19885;42.208;24.952;2023-04-25T13:11:03;2.10;;;1.90;;
33553;SDS011;19885;42.208;24.952;2023-04-25T13:13:30;4.53;;;2.20;;
33553;SDS011;19885;42.208;24.952;2023-04-25T13:15:56;2.67;;;2.17;;
33553;SDS011;19885;42.208;24.952;2023-04-25T13:18:22;1.98;;;1.85;;
33553;SDS011;19885;42.208;24.952;2023-04-25T13:20:51;2.03;;;1.65;;
33553;SDS011;19885;42.208;24.952;2023-04-25T13:23:18;3.92;;;2.00;;
33553;SDS011;19885;42.208;24.952;2023-04-25T13:25:43;8.13;;;2.13;;
33553;SDS011;19885;42.208;24.952;2023-04-25T13:28:10;6.38;;;2.53;;
33553;SDS011;19885;42.208;24.952;2023-04-25T13:30:35;2.50;;;2.30;;
33553;SDS011;19885;42.208;24.952;2023-04-25T13:33:01;1.70;;;1.33;;
33553;SDS011;19885;42.208;24.952;2023-04-25T13:35:28;6.78;;;2.03;;
33553;SDS011;19885;42.208;24.952;2023-04-25T13:37:55;1.63;;;1.52;;
33553;SDS011;19885;42.208;24.952;2023-04-25T13:40:21;2.80;;;1.75;;
33553;SDS011;19885;42.208;24.952;2023-04-25T13:42:47;1.95;;;1.80;;
33553;SDS011;19885;42.208;24.952;2023-04-25T13:45:12;4.65;;;1.80;;
33553;SDS011;19885;42.208;24.952;2023-04-25T13:47:38;1.55;;;1.25;;
33553;SDS011;19885;42.208;24.952;2023-04-25T13:50:04;8.65;;;2.10;;
33553;SDS011;19885;42.208;24.952;2023-04-25T13:52:32;2.72;;;1.67;;
33553;SDS011;19885;42.208;24.952;2023-04-25T13:54:58;3.20;;;1.20;;
33553;SDS011;19885;42.208;24.952;2023-04-25T13:57:24;0.85;;;0.85;;
33553;SDS011;19885;42.208;24.952;2023-04-25T13:59:50;4.15;;;1.25;;
33553;SDS011;19885;42.208;24.952;2023-04-25T14:02:15;1.70;;;0.93;;
33553;SDS011;19885;42.208;24.952;2023-04-25T14:04:41;2.80;;;0.82;;
33553;SDS011;19885;42.208;24.952;2023-04-25T14:07:07;1.03;;;0.73;;
33553;SDS011;19885;42.208;24.952;2023-04-25T14:09:32;1.20;;;0.90;;
33553;SDS011;19885;42.208;24.952;2023-04-25T14:11:58;1.20;;;1.10;;
33553;SDS011;19885;42.208;24.952;2023-04-25T14:14:23;1.65;;;1.17;;
33553;SDS011;19885;42.208;24.952;2023-04-25T14:16:49;1.67;;;1.40;;
33553;SDS011;19885;42.208;24.952;2023-04-25T14:19:15;2.27;;;1.87;;
33553;SDS011;19885;42.208;24.952;2023-04-25T14:21:41;0.90;;;0.90;;
33553;SDS011;19885;42.208;24.952;2023-04-25T14:24:08;0.68;;;0.68;;
33553;SDS011;19885;42.208;24.952;2023-04-25T14:26:33;4.78;;;1.30;;
33553;SDS011;19885;42.208;24.952;2023-04-25T14:29:03;1.10;;;0.98;;
33553;SDS011;19885;42.208;24.952;2023-04-25T14:31:30;0.90;;;0.90;;
33553;SDS011;19885;42.208;24.952;2023-04-25T14:33:55;1.88;;;1.02;;
33553;SDS011;19885;42.208;24.952;2023-04-25T14:36:21;1.08;;;0.98;;
33553;SDS011;19885;42.208;24.952;2023-04-25T14:38:46;1.00;;;1.00;;